sensor_id;sensor_type;location;lat;lon;timestamp;pressure;altitude;pressure_sealevel;temperature;humidity
7168;BME280;3625;51.762;14.320;2023-04-26T00:01:19;100464.00;;;4.80;96.41
7168;BME280;3625;51.762;14.320;2023-04-26T00:03:48;100457.91;;;4.75;96.45
7168;BME280;3625;51.762;14.320;2023-04-26T00:06:17;100461.38;;;4.69;97.46
7168;BME280;3625;51.762;14.320;2023-04-26T00:08:46;100455.28;;;4.73;97.74
7168;BME280;3625;51.762;14.320;2023-04-26T00:11:15;100463.16;;;4.75;98.10
7168;BME280;3625;51.762;14.320;2023-04-26T00:13:43;100463.09;;;4.67;98.22
7168;BME280;3625;51.762;14.320;2023-04-26T00:16:14;100469.22;;;4.60;98.59
7168;BME280;3625;51.762;14.320;2023-04-26T00:18:44;100474.44;;;4.49;99.20
7168;BME280;3625;51.762;14.320;2023-04-26T00:21:13;100472.69;;;4.45;100.00
7168;BME280;3625;51.762;14.320;2023-04-26T00:23:42;100478.78;;;4.46;100.00
7168;BME280;3625;51.762;14.320;2023-04-26T00:26:11;100478.78;;;4.43;100.00
7168;BME280;3625;51.762;14.320;2023-04-26T00:28:39;100482.28;;;4.40;100.00
7168;BME280;3625;51.762;14.320;2023-04-26T00:31:14;100477.91;;;4.39;100.00
7168;BME280;3625;51.762;14.320;2023-04-26T00:33:44;100479.66;;;4.39;100.00
7168;BME280;3625;51.762;14.320;2023-04-26T00:36:13;100474.38;;;4.33;100.00
7168;BME280;3625;51.762;14.320;2023-04-26T00:38:45;100473.53;;;4.32;100.00
7168;BME280;3625;51.762;14.320;2023-04-26T00:41:14;100472.66;;;4.30;100.00
7168;BME280;3625;51.762;14.320;2023-04-26T00:43:43;100479.59;;;4.25;100.00
7168;BME280;3625;51.762;14.320;2023-04-26T00:46:13;100491.81;;;4.22;100.00
7168;BME280;3625;51.762;14.320;2023-04-26T00:48:44;100486.53;;;4.12;100.00
7168;BME280;3625;51.762;14.320;2023-04-26T00:51:14;100490.00;;;4.10;100.00
7168;BME280;3625;51.762;14.320;2023-04-26T00:53:43;100492.63;;;4.10;100.00
7168;BME280;3625;51.762;14.320;2023-04-26T00:56:12;100488.25;;;4.06;100.00
7168;BME280;3625;51.762;14.320;2023-04-26T00:58:41;100420.88;;;3.61;100.00
7168;BME280;3625;51.762;14.320;2023-04-26T01:01:10;100488.22;;;4.01;100.00
7168;BME280;3625;51.762;14.320;2023-04-26T01:03:42;100490.00;;;4.05;100.00
7168;BME280;3625;51.762;14.320;2023-04-26T01:06:13;100495.19;;;3.99;100.00
7168;BME280;3625;51.762;14.320;2023-04-26T01:08:42;100489.09;;;3.96;100.00
7168;BME280;3625;51.762;14.320;2023-04-26T01:11:11;100488.19;;;3.92;100.00
7168;BME280;3625;51.762;14.320;2023-04-26T01:13:41;100488.13;;;3.85;100.00
7168;BME280;3625;51.762;14.320;2023-04-26T01:16:13;100491.63;;;3.90;100.00
7168;BME280;3625;51.762;14.320;2023-04-26T01:18:49;100495.13;;;3.87;100.00
7168;BME280;3625;51.762;14.320;2023-04-26T01:21:19;100494.25;;;3.84;100.00
7168;BME280;3625;51.762;14.320;2023-04-26T01:23:50;100496.81;;;3.80;100.00
7168;BME280;3625;51.762;14.320;2023-04-26T01:26:19;100502.94;;;3.79;100.00
7168;BME280;3625;51.762;14.320;2023-04-26T01:28:49;100499.41;;;3.74;100.00
7168;BME280;3625;51.762;14.320;2023-04-26T01:31:18;100505.50;;;3.72;100.00
7168;BME280;3625;51.762;14.320;2023-04-26T01:33:47;100500.22;;;3.63;100.00
7168;BME280;3625;51.762;14.320;2023-04-26T01:36:18;100501.06;;;3.57;100.00
7168;BME280;3625;51.762;14.320;2023-04-26T01:38:47;100498.47;;;3.63;100.00
7168;BME280;3625;51.762;14.320;2023-04-26T01:41:17;100504.56;;;3.59;100.00
7168;BME280;3625;51.762;14.320;2023-04-26T01:43:46;100504.50;;;3.52;100.00
7168;BME280;3625;51.762;14.320;2023-04-26T01:46:15;100505.31;;;3.46;100.00
7168;BME280;3625;51.762;14.320;2023-04-26T01:48:44;100508.84;;;3.48;100.00
7168;BME280;3625;51.762;14.320;2023-04-26T01:51:12;100505.41;;;3.57;100.00
7168;BME280;3625;51.762;14.320;2023-04-26T01:53:41;100510.59;;;3.51;100.00
7168;BME280;3625;51.762;14.320;2023-04-26T01:56:10;100507.94;;;3.46;100.00
7168;BME280;3625;51.762;14.320;2023-04-26T01:58:40;100516.59;;;3.37;100.00
7168;BME280;3625;51.762;14.320;2023-04-26T02:01:09;100513.91;;;3.30;100.00
7168;BME280;3625;51.762;14.320;2023-04-26T02:03:38;100515.66;;;3.28;100.00
7168;BME280;3625;51.762;14.320;2023-04-26T02:06:07;100508.63;;;3.22;100.00
7168;BME280;3625;51.762;14.320;2023-04-26T02:08:36;100512.06;;;3.17;100.00
7168;BME280;3625;51.762;14.320;2023-04-26T02:11:06;100509.41;;;3.12;100.00
7168;BME280;3625;51.762;14.320;2023-04-26T02:13:35;100508.47;;;3.02;100.00
7168;BME280;3625;51.762;14.320;2023-04-26T02:16:06;100506.66;;;2.97;100.00
7168;BME280;3625;51.762;14.320;2023-04-26T02:18:35;100509.22;;;2.89;100.00
7168;BME280;3625;51.762;14.320;2023-04-26T02:21:07;100519.63;;;2.83;100.00
7168;BME280;3625;51.762;14.320;2023-04-26T02:23:36;100512.59;;;2.76;100.00
7168;BME280;3625;51.762;14.320;2023-04-26T02:26:05;100510.84;;;2.78;100.00
7168;BME280;3625;51.762;14.320;2023-04-26T02:28:34;100514.31;;;2.77;100.00
7168;BME280;3625;51.762;14.320;2023-04-26T02:31:04;100510.00;;;2.81;100.00
7168;BME280;3625;51.762;14.320;2023-04-26T02:33:33;100515.25;;;2.82;100.00
7168;BME280;3625;51.762;14.320;2023-04-26T02:36:03;100509.13;;;2.80;100.00
7168;BME280;3625;51.762;14.320;2023-04-26T02:38:33;100508.22;;;2.75;100.00
7168;BME280;3625;51.762;14.320;2023-04-26T02:41:04;100510.69;;;2.63;100.00
7168;BME280;3625;51.762;14.320;2023-04-26T02:43:33;100510.75;;;2.69;100.00
7168;BME280;3625;51.762;14.320;2023-04-26T02:46:06;100511.69;;;2.76;100.00
7168;BME280;3625;51.762;14.320;2023-04-26T02:48:35;100512.56;;;2.75;100.00
7168;BME280;3625;51.762;14.320;2023-04-26T02:51:04;100515.09;;;2.70;100.00
7168;BME280;3625;51.762;14.320;2023-04-26T02:53:33;100511.59;;;2.67;100.00
7168;BME280;3625;51.762;14.320;2023-04-26T02:56:02;100510.69;;;2.63;100.00
7168;BME280;3625;51.762;14.320;2023-04-26T02:58:31;100514.06;;;2.53;100.00
7168;BME280;3625;51.762;14.320;2023-04-26T03:01:00;100512.34;;;2.55;100.00
7168;BME280;3625;51.762;14.320;2023-04-26T03:03:31;100514.09;;;2.56;100.00
7168;BME280;3625;51.762;14.320;2023-04-26T03:06:01;100516.66;;;2.50;100.00
7168;BME280;3625;51.762;14.320;2023-04-26T03:08:30;100522.63;;;2.43;100.00
7168;BME280;3625;51.762;14.320;2023-04-26T03:11:01;100525.22;;;2.40;100.00
7168;BME280;3625;51.762;14.320;2023-04-26T03:13:30;100529.63;;;2.44;100.00
7168;BME280;3625;51.762;14.320;2023-04-26T03:15:59;100525.22;;;2.38;100.00
7168;BME280;3625;51.762;14.320;2023-04-26T03:18:28;100524.28;;;2.33;100.00
7168;BME280;3625;51.762;14.320;2023-04-26T03:20:59;100528.56;;;2.28;100.00
7168;BME280;3625;51.762;14.320;2023-04-26T03:23:29;100534.72;;;2.32;100.00
7168;BME280;3625;51.762;14.320;2023-04-26T03:25:58;100532.94;;;2.31;100.00
7168;BME280;3625;51.762;14.320;2023-04-26T03:28:27;100535.47;;;2.26;100.00
7168;BME280;3625;51.762;14.320;2023-04-26T03:30:56;100533.72;;;2.22;100.00
7168;BME280;3625;51.762;14.320;2023-04-26T03:33:24;100536.28;;;2.20;100.00
7168;BME280;3625;51.762;14.320;2023-04-26T03:35:56;100538.88;;;2.19;100.00
7168;BME280;3625;51.762;14.320;2023-04-26T03:38:26;100537.06;;;2.12;100.00
7168;BME280;3625;51.762;14.320;2023-04-26T03:40:55;100540.53;;;2.12;100.00
7168;BME280;3625;51.762;14.320;2023-04-26T03:43:24;100540.50;;;2.11;100.00
7168;BME280;3625;51.762;14.320;2023-04-26T03:45:53;100544.84;;;2.10;100.00
7168;BME280;3625;51.762;14.320;2023-04-26T03:48:21;100534.31;;;2.03;100.00
7168;BME280;3625;51.762;14.320;2023-04-26T03:50:50;100535.19;;;2.02;100.00
7168;BME280;3625;51.762;14.320;2023-04-26T03:53:19;100550.06;;;2.07;100.00
7168;BME280;3625;51.762;14.320;2023-04-26T03:55:49;100547.50;;;2.12;100.00
7168;BME280;3625;51.762;14.320;2023-04-26T03:58:18;100551.03;;;2.15;100.00
7168;BME280;3625;51.762;14.320;2023-04-26T04:00:47;100544.94;;;2.16;100.00
7168;BME280;3625;51.762;14.320;2023-04-26T04:03:16;100554.56;;;2.20;100.00
7168;BME280;3625;51.762;14.320;2023-04-26T04:05:45;100538.94;;;2.25;100.00
7168;BME280;3625;51.762;14.320;2023-04-26T04:08:14;100548.53;;;2.24;100.00
7168;BME280;3625;51.762;14.320;2023-04-26T04:10:44;100549.50;;;2.31;100.00
7168;BME280;3625;51.762;14.320;2023-04-26T04:13:14;100543.50;;;2.40;100.00
7168;BME280;3625;51.762;14.320;2023-04-26T04:15:43;100542.78;;;2.53;100.00
7168;BME280;3625;51.762;14.320;2023-04-26T04:18:13;100545.47;;;2.59;100.00
7168;BME280;3625;51.762;14.320;2023-04-26T04:20:42;100540.28;;;2.63;100.00
7168;BME280;3625;51.762;14.320;2023-04-26T04:23:11;100549.06;;;2.67;100.00
7168;BME280;3625;51.762;14.320;2023-04-26T04:25:40;100556.06;;;2.73;100.00
7168;BME280;3625;51.762;14.320;2023-04-26T04:28:11;100552.63;;;2.78;100.00
7168;BME280;3625;51.762;14.320;2023-04-26T04:30:45;100552.69;;;2.83;100.00
7168;BME280;3625;51.762;14.320;2023-04-26T04:33:18;100556.28;;;2.92;100.00
7168;BME280;3625;51.762;14.320;2023-04-26T04:35:50;100557.19;;;2.97;100.00
7168;BME280;3625;51.762;14.320;2023-04-26T04:38:18;100562.53;;;3.08;100.00
7168;BME280;3625;51.762;14.320;2023-04-26T04:40:47;100563.47;;;3.16;100.00
7168;BME280;3625;51.762;14.320;2023-04-26T04:43:18;100576.59;;;3.22;100.00
7168;BME280;3625;51.762;14.320;2023-04-26T04:45:49;100572.34;;;3.33;100.00
7168;BME280;3625;51.762;14.320;2023-04-26T04:48:18;100581.13;;;3.40;100.00
7168;BME280;3625;51.762;14.320;2023-04-26T04:50:49;100581.19;;;3.49;100.00
7168;BME280;3625;51.762;14.320;2023-04-26T04:53:18;100582.13;;;3.56;100.00
7168;BME280;3625;51.762;14.320;2023-04-26T04:55:46;100586.56;;;3.67;100.00
7168;BME280;3625;51.762;14.320;2023-04-26T04:58:17;100593.66;;;3.79;100.00
7168;BME280;3625;51.762;14.320;2023-04-26T05:00:52;100592.81;;;3.86;100.00
7168;BME280;3625;51.762;14.320;2023-04-26T05:03:30;100594.66;;;3.96;100.00
7168;BME280;3625;51.762;14.320;2023-04-26T05:06:01;100596.47;;;4.09;100.00
7168;BME280;3625;51.762;14.320;2023-04-26T05:11:18;100607.94;;;4.34;100.00
7168;BME280;3625;51.762;14.320;2023-04-26T05:13:47;100605.38;;;4.40;100.00
7168;BME280;3625;51.762;14.320;2023-04-26T05:16:20;100596.69;;;4.49;100.00
7168;BME280;3625;51.762;14.320;2023-04-26T05:18:50;100601.97;;;4.58;100.00
7168;BME280;3625;51.762;14.320;2023-04-26T05:21:20;100609.84;;;4.69;100.00
7168;BME280;3625;51.762;14.320;2023-04-26T05:23:49;100612.53;;;4.79;100.00
7168;BME280;3625;51.762;14.320;2023-04-26T05:26:18;100578.44;;;4.72;100.00
7168;BME280;3625;51.762;14.320;2023-04-26T05:29:15;100616.09;;;5.00;100.00
7168;BME280;3625;51.762;14.320;2023-04-26T05:32:04;100620.47;;;5.05;100.00
7168;BME280;3625;51.762;14.320;2023-04-26T05:34:45;100620.47;;;5.04;100.00
7168;BME280;3625;51.762;14.320;2023-04-26T05:37:16;100623.06;;;5.04;100.00
7168;BME280;3625;51.762;14.320;2023-04-26T05:39:45;100623.97;;;5.13;100.00
7168;BME280;3625;51.762;14.320;2023-04-26T05:42:13;100627.50;;;5.17;100.00
7168;BME280;3625;51.762;14.320;2023-04-26T05:44:44;100630.13;;;5.18;100.00
7168;BME280;3625;51.762;14.320;2023-04-26T05:47:14;100634.50;;;5.22;100.00
7168;BME280;3625;51.762;14.320;2023-04-26T05:49:43;100631.84;;;5.19;100.00
7168;BME280;3625;51.762;14.320;2023-04-26T05:52:12;100629.25;;;5.18;100.00
7168;BME280;3625;51.762;14.320;2023-04-26T05:54:41;100642.38;;;5.25;100.00
7168;BME280;3625;51.762;14.320;2023-04-26T05:57:10;100634.47;;;5.21;100.00
7168;BME280;3625;51.762;14.320;2023-04-26T05:59:39;100641.50;;;5.23;100.00
7168;BME280;3625;51.762;14.320;2023-04-26T06:02:08;100642.38;;;5.30;100.00
7168;BME280;3625;51.762;14.320;2023-04-26T06:04:39;100648.50;;;5.30;100.00
7168;BME280;3625;51.762;14.320;2023-04-26T06:07:15;100645.88;;;5.32;100.00
7168;BME280;3625;51.762;14.320;2023-04-26T06:09:46;100644.13;;;5.39;100.00
7168;BME280;3625;51.762;14.320;2023-04-26T06:12:16;100645.91;;;5.44;100.00
7168;BME280;3625;51.762;14.320;2023-04-26T06:14:46;100650.31;;;5.53;100.00
7168;BME280;3625;51.762;14.320;2023-04-26T06:17:19;100650.31;;;5.53;98.99
7168;BME280;3625;51.762;14.320;2023-04-26T06:19:50;100642.41;;;5.56;98.52
7168;BME280;3625;51.762;14.320;2023-04-26T06:22:19;100649.41;;;5.57;99.45
7168;BME280;3625;51.762;14.320;2023-04-26T06:24:48;100649.41;;;5.63;99.00
7168;BME280;3625;51.762;14.320;2023-04-26T06:27:16;100652.94;;;5.76;97.95
7168;BME280;3625;51.762;14.320;2023-04-26T06:29:47;100649.41;;;5.72;97.72
7168;BME280;3625;51.762;14.320;2023-04-26T06:32:17;100642.44;;;5.76;98.17
7168;BME280;3625;51.762;14.320;2023-04-26T06:34:46;100643.31;;;5.88;98.34
7168;BME280;3625;51.762;14.320;2023-04-26T06:37:16;100652.06;;;6.05;97.59
7168;BME280;3625;51.762;14.320;2023-04-26T06:39:45;100646.81;;;6.18;95.31
7168;BME280;3625;51.762;14.320;2023-04-26T06:42:14;100649.44;;;6.19;93.13
7168;BME280;3625;51.762;14.320;2023-04-26T06:45:11;100660.81;;;6.26;91.78
7168;BME280;3625;51.762;14.320;2023-04-26T06:47:40;100660.78;;;6.32;92.08
7168;BME280;3625;51.762;14.320;2023-04-26T06:50:10;100662.56;;;6.30;93.28
7168;BME280;3625;51.762;14.320;2023-04-26T06:52:42;100653.81;;;6.28;92.53
7168;BME280;3625;51.762;14.320;2023-04-26T06:55:10;100657.28;;;6.33;93.55
7168;BME280;3625;51.762;14.320;2023-04-26T06:57:39;100665.13;;;6.51;91.24
7168;BME280;3625;51.762;14.320;2023-04-26T07:00:09;100666.88;;;6.60;89.60
7168;BME280;3625;51.762;14.320;2023-04-26T07:02:39;100676.50;;;6.61;89.18
7168;BME280;3625;51.762;14.320;2023-04-26T07:05:09;100675.66;;;6.56;87.38
7168;BME280;3625;51.762;14.320;2023-04-26T07:07:37;100673.00;;;6.62;88.69
7168;BME280;3625;51.762;14.320;2023-04-26T07:10:09;100670.34;;;6.71;87.14
7168;BME280;3625;51.762;14.320;2023-04-26T07:12:38;100675.53;;;6.94;85.32
7168;BME280;3625;51.762;14.320;2023-04-26T07:15:08;100674.56;;;7.16;84.75
7168;BME280;3625;51.762;14.320;2023-04-26T07:17:37;100676.03;;;7.61;81.09
7168;BME280;3625;51.762;14.320;2023-04-26T07:20:07;100685.47;;;7.91;79.92
7168;BME280;3625;51.762;14.320;2023-04-26T07:22:37;100681.94;;;7.95;78.70
7168;BME280;3625;51.762;14.320;2023-04-26T07:25:07;100687.22;;;7.95;77.87
7168;BME280;3625;51.762;14.320;2023-04-26T07:27:36;100679.09;;;8.19;75.46
7168;BME280;3625;51.762;14.320;2023-04-26T07:30:06;100690.31;;;8.44;75.29
7168;BME280;3625;51.762;14.320;2023-04-26T07:32:36;100691.28;;;8.36;72.14
7168;BME280;3625;51.762;14.320;2023-04-26T07:35:06;100694.13;;;8.08;74.00
7168;BME280;3625;51.762;14.320;2023-04-26T07:37:36;100694.22;;;7.96;74.58
7168;BME280;3625;51.762;14.320;2023-04-26T07:40:08;100688.06;;;7.99;74.92
7168;BME280;3625;51.762;14.320;2023-04-26T07:42:37;100690.72;;;7.95;75.43
7168;BME280;3625;51.762;14.320;2023-04-26T07:45:07;100687.94;;;8.12;75.63
7168;BME280;3625;51.762;14.320;2023-04-26T07:47:36;100688.69;;;8.29;73.86
7168;BME280;3625;51.762;14.320;2023-04-26T07:50:06;100701.63;;;8.55;68.12
7168;BME280;3625;51.762;14.320;2023-04-26T07:52:35;100703.06;;;8.84;66.98
7168;BME280;3625;51.762;14.320;2023-04-26T07:55:04;100700.78;;;9.27;64.36
7168;BME280;3625;51.762;14.320;2023-04-26T07:57:34;100707.72;;;9.35;63.37
7168;BME280;3625;51.762;14.320;2023-04-26T08:00:05;100708.00;;;9.16;63.29
7168;BME280;3625;51.762;14.320;2023-04-26T08:02:38;100718.25;;;9.38;63.30
7168;BME280;3625;51.762;14.320;2023-04-26T08:05:12;100710.34;;;9.35;60.13
7168;BME280;3625;51.762;14.320;2023-04-26T08:07:42;100709.69;;;9.18;60.93
7168;BME280;3625;51.762;14.320;2023-04-26T08:10:11;100723.28;;;8.86;60.30
7168;BME280;3625;51.762;14.320;2023-04-26T08:12:41;100720.97;;;8.56;60.28
7168;BME280;3625;51.762;14.320;2023-04-26T08:15:11;100707.91;;;8.39;61.85
7168;BME280;3625;51.762;14.320;2023-04-26T08:20:12;100702.81;;;9.08;61.71
7168;BME280;3625;51.762;14.320;2023-04-26T08:22:40;100711.88;;;9.53;57.72
7168;BME280;3625;51.762;14.320;2023-04-26T08:25:10;100714.16;;;9.77;55.20
7168;BME280;3625;51.762;14.320;2023-04-26T08:27:40;100701.66;;;10.44;53.72
7168;BME280;3625;51.762;14.320;2023-04-26T08:30:11;100698.25;;;11.28;52.79
7168;BME280;3625;51.762;14.320;2023-04-26T08:32:40;100717.78;;;11.22;49.32
7168;BME280;3625;51.762;14.320;2023-04-26T08:35:09;100727.47;;;10.80;49.08
7168;BME280;3625;51.762;14.320;2023-04-26T08:37:38;100717.25;;;10.59;49.79
7168;BME280;3625;51.762;14.320;2023-04-26T08:40:08;100716.47;;;10.54;50.22
7168;BME280;3625;51.762;14.320;2023-04-26T08:42:41;100726.72;;;10.21;50.90
7168;BME280;3625;51.762;14.320;2023-04-26T08:45:10;100720.66;;;10.12;53.31
7168;BME280;3625;51.762;14.320;2023-04-26T08:47:43;100729.41;;;10.17;53.30
7168;BME280;3625;51.762;14.320;2023-04-26T08:50:14;100729.94;;;10.39;51.35
7168;BME280;3625;51.762;14.320;2023-04-26T08:52:43;100720.97;;;10.47;50.68
7168;BME280;3625;51.762;14.320;2023-04-26T08:55:13;100730.75;;;10.45;50.21
7168;BME280;3625;51.762;14.320;2023-04-26T08:57:45;100732.22;;;10.06;50.99
7168;BME280;3625;51.762;14.320;2023-04-26T09:00:17;100713.56;;;9.59;53.61
7168;BME280;3625;51.762;14.320;2023-04-26T09:02:47;100743.91;;;9.27;59.81
7168;BME280;3625;51.762;14.320;2023-04-26T09:05:17;100741.41;;;9.17;65.90
7168;BME280;3625;51.762;14.320;2023-04-26T09:07:50;100730.91;;;9.11;69.30
7168;BME280;3625;51.762;14.320;2023-04-26T09:10:21;100726.06;;;9.46;68.66
7168;BME280;3625;51.762;14.320;2023-04-26T09:12:53;100714.56;;;9.50;68.59
7168;BME280;3625;51.762;14.320;2023-04-26T09:15:25;100723.41;;;9.46;67.55
7168;BME280;3625;51.762;14.320;2023-04-26T09:17:54;100715.34;;;9.58;68.41
7168;BME280;3625;51.762;14.320;2023-04-26T09:20:25;100722.78;;;9.90;67.43
7168;BME280;3625;51.762;14.320;2023-04-26T09:23:04;100725.66;;;9.75;60.59
7168;BME280;3625;51.762;14.320;2023-04-26T09:25:33;100722.44;;;9.53;61.08
7168;BME280;3625;51.762;14.320;2023-04-26T09:28:17;100724.06;;;9.63;63.42
7168;BME280;3625;51.762;14.320;2023-04-26T09:30:46;100722.00;;;9.85;63.82
7168;BME280;3625;51.762;14.320;2023-04-26T09:33:15;100719.66;;;10.22;62.22
7168;BME280;3625;51.762;14.320;2023-04-26T09:35:46;100712.19;;;10.93;59.39
7168;BME280;3625;51.762;14.320;2023-04-26T09:38:16;100724.78;;;11.66;57.59
7168;BME280;3625;51.762;14.320;2023-04-26T09:40:47;100731.31;;;11.50;50.13
7168;BME280;3625;51.762;14.320;2023-04-26T09:43:18;100664.41;;;10.99;50.40
7168;BME280;3625;51.762;14.320;2023-04-26T09:45:49;100706.53;;;11.53;51.11
7168;BME280;3625;51.762;14.320;2023-04-26T09:48:20;100724.59;;;11.74;49.00
7168;BME280;3625;51.762;14.320;2023-04-26T09:50:51;100722.06;;;11.29;49.53
7168;BME280;3625;51.762;14.320;2023-04-26T09:53:30;100734.91;;;11.48;48.88
7168;BME280;3625;51.762;14.320;2023-04-26T09:56:07;100729.81;;;11.39;48.70
7168;BME280;3625;51.762;14.320;2023-04-26T09:58:40;100725.78;;;11.61;47.20
7168;BME280;3625;51.762;14.320;2023-04-26T10:01:26;100725.22;;;11.47;47.37
7168;BME280;3625;51.762;14.320;2023-04-26T10:03:58;100732.75;;;11.65;48.00
7168;BME280;3625;51.762;14.320;2023-04-26T10:06:28;100722.75;;;11.79;48.01
7168;BME280;3625;51.762;14.320;2023-04-26T10:08:59;100725.03;;;11.94;46.59
7168;BME280;3625;51.762;14.320;2023-04-26T10:11:30;100724.53;;;12.16;46.53
7168;BME280;3625;51.762;14.320;2023-04-26T10:14:00;100731.00;;;12.39;45.27
7168;BME280;3625;51.762;14.320;2023-04-26T10:16:30;100728.47;;;12.35;43.92
7168;BME280;3625;51.762;14.320;2023-04-26T10:18:59;100724.16;;;12.65;44.23
7168;BME280;3625;51.762;14.320;2023-04-26T10:21:32;100733.44;;;12.48;42.84
7168;BME280;3625;51.762;14.320;2023-04-26T10:24:05;100736.72;;;12.23;42.85
7168;BME280;3625;51.762;14.320;2023-04-26T10:26:47;100727.13;;;11.82;42.53
7168;BME280;3625;51.762;14.320;2023-04-26T10:29:19;100738.44;;;11.48;42.38
7168;BME280;3625;51.762;14.320;2023-04-26T10:32:15;100741.69;;;11.19;42.45
7168;BME280;3625;51.762;14.320;2023-04-26T10:34:45;100737.84;;;11.34;42.93
7168;BME280;3625;51.762;14.320;2023-04-26T10:37:33;100738.28;;;11.94;41.17
7168;BME280;3625;51.762;14.320;2023-04-26T10:40:24;100688.47;;;12.42;41.13
7168;BME280;3625;51.762;14.320;2023-04-26T10:46:38;100735.09;;;13.19;40.51
7168;BME280;3625;51.762;14.320;2023-04-26T10:49:25;100692.94;;;13.66;40.06
7168;BME280;3625;51.762;14.320;2023-04-26T10:52:10;100741.84;;;13.89;37.17
7168;BME280;3625;51.762;14.320;2023-04-26T10:54:59;100744.63;;;12.61;37.78
7168;BME280;3625;51.762;14.320;2023-04-26T10:57:49;100757.78;;;12.29;39.56
7168;BME280;3625;51.762;14.320;2023-04-26T11:00:29;100736.78;;;12.20;40.16
7168;BME280;3625;51.762;14.320;2023-04-26T11:03:04;100730.31;;;12.31;40.99
7168;BME280;3625;51.762;14.320;2023-04-26T11:05:52;100728.44;;;12.70;40.38
7168;BME280;3625;51.762;14.320;2023-04-26T11:08:26;100732.50;;;12.83;40.99
7168;BME280;3625;51.762;14.320;2023-04-26T11:10:58;100719.81;;;12.95;41.72
7168;BME280;3625;51.762;14.320;2023-04-26T11:13:34;100729.13;;;12.78;42.25
7168;BME280;3625;51.762;14.320;2023-04-26T11:16:05;100730.97;;;12.75;42.08
7168;BME280;3625;51.762;14.320;2023-04-26T11:18:40;100729.91;;;12.80;42.57
7168;BME280;3625;51.762;14.320;2023-04-26T11:21:10;100733.59;;;13.40;42.75
7168;BME280;3625;51.762;14.320;2023-04-26T11:23:41;100736.72;;;13.54;39.97
7168;BME280;3625;51.762;14.320;2023-04-26T11:26:10;100726.75;;;14.18;39.17
7168;BME280;3625;51.762;14.320;2023-04-26T11:28:39;100730.31;;;13.89;38.61
7168;BME280;3625;51.762;14.320;2023-04-26T11:31:10;100740.13;;;14.15;38.27
7168;BME280;3625;51.762;14.320;2023-04-26T11:33:42;100738.38;;;14.68;38.28
7168;BME280;3625;51.762;14.320;2023-04-26T11:36:11;100734.88;;;15.16;38.05
7168;BME280;3625;51.762;14.320;2023-04-26T11:38:40;100739.38;;;15.14;36.21
7168;BME280;3625;51.762;14.320;2023-04-26T11:41:09;100746.13;;;15.24;35.57
7168;BME280;3625;51.762;14.320;2023-04-26T11:43:38;100756.72;;;15.02;36.15
7168;BME280;3625;51.762;14.320;2023-04-26T11:46:11;100741.44;;;14.56;37.12
7168;BME280;3625;51.762;14.320;2023-04-26T11:48:43;100753.34;;;14.70;37.06
7168;BME280;3625;51.762;14.320;2023-04-26T11:51:13;100752.59;;;14.13;36.35
7168;BME280;3625;51.762;14.320;2023-04-26T11:53:42;100766.00;;;13.52;35.59
7168;BME280;3625;51.762;14.320;2023-04-26T11:56:15;100765.78;;;13.29;36.16
7168;BME280;3625;51.762;14.320;2023-04-26T11:58:45;100772.97;;;13.26;36.43
7168;BME280;3625;51.762;14.320;2023-04-26T12:01:20;100781.75;;;13.29;35.65
7168;BME280;3625;51.762;14.320;2023-04-26T12:03:53;100770.06;;;13.35;34.61
7168;BME280;3625;51.762;14.320;2023-04-26T12:06:28;100770.47;;;13.50;35.34
7168;BME280;3625;51.762;14.320;2023-04-26T12:09:01;100780.97;;;13.56;35.48
7168;BME280;3625;51.762;14.320;2023-04-26T12:11:32;100784.41;;;12.95;37.04
7168;BME280;3625;51.762;14.320;2023-04-26T12:14:02;100777.28;;;12.63;37.67
7168;BME280;3625;51.762;14.320;2023-04-26T12:16:31;100779.94;;;12.63;37.89
7168;BME280;3625;51.762;14.320;2023-04-26T12:19:04;100775.50;;;12.64;38.43
7168;BME280;3625;51.762;14.320;2023-04-26T12:21:40;100767.22;;;12.76;38.75
7168;BME280;3625;51.762;14.320;2023-04-26T12:24:24;100765.03;;;12.58;42.55
7168;BME280;3625;51.762;14.320;2023-04-26T12:26:53;100766.22;;;12.80;42.46
7168;BME280;3625;51.762;14.320;2023-04-26T12:29:22;100773.13;;;13.21;42.42
7168;BME280;3625;51.762;14.320;2023-04-26T12:31:51;100773.94;;;13.54;41.45
7168;BME280;3625;51.762;14.320;2023-04-26T12:34:22;100769.09;;;13.96;41.38
7168;BME280;3625;51.762;14.320;2023-04-26T12:36:52;100774.16;;;13.76;41.11
7168;BME280;3625;51.762;14.320;2023-04-26T12:39:21;100782.06;;;13.17;41.26
7168;BME280;3625;51.762;14.320;2023-04-26T12:41:50;100777.19;;;12.32;43.09
7168;BME280;3625;51.762;14.320;2023-04-26T12:44:18;100786.13;;;11.90;46.23
7168;BME280;3625;51.762;14.320;2023-04-26T12:46:51;100784.94;;;11.18;49.72
7168;BME280;3625;51.762;14.320;2023-04-26T12:49:21;100765.56;;;10.72;53.42
7168;BME280;3625;51.762;14.320;2023-04-26T12:51:52;100767.63;;;10.54;56.18
7168;BME280;3625;51.762;14.320;2023-04-26T12:54:26;100769.00;;;10.74;55.82
7168;BME280;3625;51.762;14.320;2023-04-26T12:56:54;100766.22;;;11.27;55.46
7168;BME280;3625;51.762;14.320;2023-04-26T12:59:25;100762.09;;;11.97;52.82
7168;BME280;3625;51.762;14.320;2023-04-26T13:01:53;100745.53;;;12.60;50.80
7168;BME280;3625;51.762;14.320;2023-04-26T13:04:24;100764.66;;;13.05;47.54
7168;BME280;3625;51.762;14.320;2023-04-26T13:06:53;100764.09;;;13.27;46.76
7168;BME280;3625;51.762;14.320;2023-04-26T13:09:22;100771.44;;;13.17;44.91
7168;BME280;3625;51.762;14.320;2023-04-26T13:11:51;100773.13;;;12.87;45.01
7168;BME280;3625;51.762;14.320;2023-04-26T13:14:20;100769.31;;;12.63;44.51
7168;BME280;3625;51.762;14.320;2023-04-26T13:16:49;100762.00;;;12.37;45.23
7168;BME280;3625;51.762;14.320;2023-04-26T13:19:19;100760.75;;;12.17;46.18
7168;BME280;3625;51.762;14.320;2023-04-26T13:21:49;100752.34;;;11.99;46.23
7168;BME280;3625;51.762;14.320;2023-04-26T13:24:19;100753.47;;;12.26;45.78
7168;BME280;3625;51.762;14.320;2023-04-26T13:26:49;100750.06;;;12.55;44.17
7168;BME280;3625;51.762;14.320;2023-04-26T13:29:18;100753.09;;;13.06;43.82
7168;BME280;3625;51.762;14.320;2023-04-26T13:31:47;100753.66;;;13.50;41.42